sensor_id;sensor_type;location;lat;lon;timestamp;P1;durP1;ratioP1;P2;durP2;ratioP2
24008;SDS011;12217;50.792;4.372;2023-06-10T00:01:47;9.00;;;8.20;;
24008;SDS011;12217;50.792;4.372;2023-06-10T00:04:15;12.10;;;9.10;;
24008;SDS011;12217;50.792;4.372;2023-06-10T00:06:42;9.63;;;8.73;;
24008;SDS011;12217;50.792;4.372;2023-06-10T00:09:13;9.02;;;8.23;;
24008;SDS011;12217;50.792;4.372;2023-06-10T00:11:39;10.13;;;8.45;;
24008;SDS011;12217;50.792;4.372;2023-06-10T00:14:05;10.00;;;9.10;;
24008;SDS011;12217;50.792;4.372;2023-06-10T00:16:31;10.27;;;8.73;;
24008;SDS011;12217;50.792;4.372;2023-06-10T00:18:56;9.75;;;8.73;;
24008;SDS011;12217;50.792;4.372;2023-06-10T00:21:29;9.77;;;8.93;;
24008;SDS011;12217;50.792;4.372;2023-06-10T00:24:05;9.77;;;8.82;;
24008;SDS011;12217;50.792;4.372;2023-06-10T00:26:32;9.40;;;8.60;;
24008;SDS011;12217;50.792;4.372;2023-06-10T00:28:58;12.50;;;8.95;;
24008;SDS011;12217;50.792;4.372;2023-06-10T00:31:24;10.05;;;9.05;;
24008;SDS011;12217;50.792;4.372;2023-06-10T00:33:53;9.52;;;8.70;;
24008;SDS011;12217;50.792;4.372;2023-06-10T00:36:19;9.57;;;8.55;;
24008;SDS011;12217;50.792;4.372;2023-06-10T00:38:45;9.40;;;8.60;;
24008;SDS011;12217;50.792;4.372;2023-06-10T00:41:10;10.20;;;9.20;;
24008;SDS011;12217;50.792;4.372;2023-06-10T00:43:36;9.38;;;8.57;;
24008;SDS011;12217;50.792;4.372;2023-06-10T00:46:02;11.90;;;9.13;;
24008;SDS011;12217;50.792;4.372;2023-06-10T00:48:27;10.15;;;9.15;;
24008;SDS011;12217;50.792;4.372;2023-06-10T00:50:53;10.05;;;9.05;;
24008;SDS011;12217;50.792;4.372;2023-06-10T00:53:19;10.13;;;9.23;;
24008;SDS011;12217;50.792;4.372;2023-06-10T00:55:46;10.38;;;9.23;;
24008;SDS011;12217;50.792;4.372;2023-06-10T00:58:12;10.23;;;9.27;;
24008;SDS011;12217;50.792;4.372;2023-06-10T01:00:38;11.40;;;9.15;;
24008;SDS011;12217;50.792;4.372;2023-06-10T01:03:03;10.95;;;9.50;;
24008;SDS011;12217;50.792;4.372;2023-06-10T01:05:33;10.13;;;9.07;;
24008;SDS011;12217;50.792;4.372;2023-06-10T01:08:07;10.38;;;9.48;;
24008;SDS011;12217;50.792;4.372;2023-06-10T01:10:37;10.05;;;9.13;;
24008;SDS011;12217;50.792;4.372;2023-06-10T01:13:11;9.77;;;8.77;;
24008;SDS011;12217;50.792;4.372;2023-06-10T01:15:38;10.63;;;9.60;;
24008;SDS011;12217;50.792;4.372;2023-06-10T01:18:05;10.45;;;9.30;;
24008;SDS011;12217;50.792;4.372;2023-06-10T01:20:35;9.40;;;8.60;;
24008;SDS011;12217;50.792;4.372;2023-06-10T01:23:05;10.63;;;9.63;;
24008;SDS011;12217;50.792;4.372;2023-06-10T01:25:31;10.13;;;9.23;;
24008;SDS011;12217;50.792;4.372;2023-06-10T01:33:50;12.65;;;9.45;;
24008;SDS011;12217;50.792;4.372;2023-06-10T01:36:18;10.52;;;9.40;;
24008;SDS011;12217;50.792;4.372;2023-06-10T01:38:45;10.63;;;9.40;;
24008;SDS011;12217;50.792;4.372;2023-06-10T01:41:13;10.23;;;9.18;;
24008;SDS011;12217;50.792;4.372;2023-06-10T01:43:40;9.73;;;8.82;;
24008;SDS011;12217;50.792;4.372;2023-06-10T01:46:08;10.68;;;9.38;;
24008;SDS011;12217;50.792;4.372;2023-06-10T01:48:34;10.05;;;9.02;;
24008;SDS011;12217;50.792;4.372;2023-06-10T01:51:00;9.63;;;8.82;;
24008;SDS011;12217;50.792;4.372;2023-06-10T01:53:26;10.80;;;9.13;;
24008;SDS011;12217;50.792;4.372;2023-06-10T01:55:51;11.75;;;9.60;;
24008;SDS011;12217;50.792;4.372;2023-06-10T01:58:17;10.50;;;9.60;;
24008;SDS011;12217;50.792;4.372;2023-06-10T02:00:42;11.40;;;9.52;;
24008;SDS011;12217;50.792;4.372;2023-06-10T02:03:08;10.70;;;9.60;;
24008;SDS011;12217;50.792;4.372;2023-06-10T02:05:33;10.82;;;9.85;;
24008;SDS011;12217;50.792;4.372;2023-06-10T02:07:59;10.00;;;8.98;;
24008;SDS011;12217;50.792;4.372;2023-06-10T02:10:25;11.50;;;10.00;;
24008;SDS011;12217;50.792;4.372;2023-06-10T02:12:51;10.85;;;9.77;;
24008;SDS011;12217;50.792;4.372;2023-06-10T02:15:17;10.63;;;9.63;;
24008;SDS011;12217;50.792;4.372;2023-06-10T02:17:43;10.93;;;9.88;;
24008;SDS011;12217;50.792;4.372;2023-06-10T02:20:09;10.57;;;9.57;;
24008;SDS011;12217;50.792;4.372;2023-06-10T02:22:36;10.82;;;9.80;;
24008;SDS011;12217;50.792;4.372;2023-06-10T02:25:02;10.68;;;9.57;;
24008;SDS011;12217;50.792;4.372;2023-06-10T02:27:29;10.95;;;9.95;;
24008;SDS011;12217;50.792;4.372;2023-06-10T02:29:55;10.23;;;9.32;;
24008;SDS011;12217;50.792;4.372;2023-06-10T02:32:21;11.05;;;9.48;;
24008;SDS011;12217;50.792;4.372;2023-06-10T02:34:47;10.77;;;9.77;;
24008;SDS011;12217;50.792;4.372;2023-06-10T02:37:14;10.73;;;9.38;;
24008;SDS011;12217;50.792;4.372;2023-06-10T02:39:40;11.55;;;10.35;;
24008;SDS011;12217;50.792;4.372;2023-06-10T02:42:06;10.88;;;9.88;;
24008;SDS011;12217;50.792;4.372;2023-06-10T02:44:32;10.57;;;9.68;;
24008;SDS011;12217;50.792;4.372;2023-06-10T02:46:58;11.00;;;9.90;;
24008;SDS011;12217;50.792;4.372;2023-06-10T02:49:23;10.80;;;9.80;;
24008;SDS011;12217;50.792;4.372;2023-06-10T02:51:52;10.85;;;9.70;;
24008;SDS011;12217;50.792;4.372;2023-06-10T02:54:19;10.77;;;9.88;;
24008;SDS011;12217;50.792;4.372;2023-06-10T02:56:45;10.98;;;9.93;;
24008;SDS011;12217;50.792;4.372;2023-06-10T02:59:10;11.15;;;10.13;;
24008;SDS011;12217;50.792;4.372;2023-06-10T03:01:36;11.25;;;10.15;;
24008;SDS011;12217;50.792;4.372;2023-06-10T03:04:03;11.82;;;10.23;;
24008;SDS011;12217;50.792;4.372;2023-06-10T03:06:30;12.82;;;10.70;;
24008;SDS011;12217;50.792;4.372;2023-06-10T03:08:58;10.63;;;9.63;;
24008;SDS011;12217;50.792;4.372;2023-06-10T03:11:24;11.13;;;10.02;;
24008;SDS011;12217;50.792;4.372;2023-06-10T03:13:50;11.38;;;10.18;;
24008;SDS011;12217;50.792;4.372;2023-06-10T03:16:17;11.57;;;10.38;;
24008;SDS011;12217;50.792;4.372;2023-06-10T03:18:43;13.02;;;10.30;;
24008;SDS011;12217;50.792;4.372;2023-06-10T03:21:09;10.80;;;9.80;;
24008;SDS011;12217;50.792;4.372;2023-06-10T03:23:35;14.98;;;10.05;;
24008;SDS011;12217;50.792;4.372;2023-06-10T03:26:02;11.40;;;10.25;;
24008;SDS011;12217;50.792;4.372;2023-06-10T03:28:27;11.60;;;10.40;;
24008;SDS011;12217;50.792;4.372;2023-06-10T03:30:53;11.65;;;10.40;;
24008;SDS011;12217;50.792;4.372;2023-06-10T03:33:18;10.98;;;9.80;;
24008;SDS011;12217;50.792;4.372;2023-06-10T03:35:45;11.75;;;10.55;;
24008;SDS011;12217;50.792;4.372;2023-06-10T03:38:10;10.93;;;9.80;;
24008;SDS011;12217;50.792;4.372;2023-06-10T03:40:36;11.13;;;10.00;;
24008;SDS011;12217;50.792;4.372;2023-06-10T03:43:02;11.48;;;10.30;;
24008;SDS011;12217;50.792;4.372;2023-06-10T03:45:27;13.07;;;10.23;;
24008;SDS011;12217;50.792;4.372;2023-06-10T03:47:53;11.35;;;10.27;;
24008;SDS011;12217;50.792;4.372;2023-06-10T03:50:19;11.75;;;10.55;;
24008;SDS011;12217;50.792;4.372;2023-06-10T03:52:44;11.50;;;10.50;;
24008;SDS011;12217;50.792;4.372;2023-06-10T03:55:11;11.60;;;10.15;;
24008;SDS011;12217;50.792;4.372;2023-06-10T03:57:38;11.55;;;10.45;;
24008;SDS011;12217;50.792;4.372;2023-06-10T04:00:04;11.25;;;10.23;;
24008;SDS011;12217;50.792;4.372;2023-06-10T04:02:35;13.07;;;10.32;;
24008;SDS011;12217;50.792;4.372;2023-06-10T04:05:01;11.80;;;10.60;;
24008;SDS011;12217;50.792;4.372;2023-06-10T04:07:27;12.57;;;10.40;;
24008;SDS011;12217;50.792;4.372;2023-06-10T04:09:53;11.15;;;10.10;;
24008;SDS011;12217;50.792;4.372;2023-06-10T04:12:18;11.15;;;10.05;;
24008;SDS011;12217;50.792;4.372;2023-06-10T04:14:44;11.80;;;10.70;;
24008;SDS011;12217;50.792;4.372;2023-06-10T04:17:10;11.65;;;10.40;;
24008;SDS011;12217;50.792;4.372;2023-06-10T04:19:35;11.52;;;10.38;;
24008;SDS011;12217;50.792;4.372;2023-06-10T04:22:01;14.00;;;10.90;;
24008;SDS011;12217;50.792;4.372;2023-06-10T04:24:28;11.38;;;10.18;;
24008;SDS011;12217;50.792;4.372;2023-06-10T04:26:54;11.27;;;10.27;;
24008;SDS011;12217;50.792;4.372;2023-06-10T04:29:19;12.55;;;11.15;;
24008;SDS011;12217;50.792;4.372;2023-06-10T04:31:45;11.75;;;10.55;;
24008;SDS011;12217;50.792;4.372;2023-06-10T04:34:11;12.52;;;10.30;;
24008;SDS011;12217;50.792;4.372;2023-06-10T04:36:37;13.30;;;10.88;;
24008;SDS011;12217;50.792;4.372;2023-06-10T04:39:03;12.65;;;10.90;;
24008;SDS011;12217;50.792;4.372;2023-06-10T04:41:30;11.57;;;10.40;;
24008;SDS011;12217;50.792;4.372;2023-06-10T04:43:56;11.55;;;10.55;;
24008;SDS011;12217;50.792;4.372;2023-06-10T04:46:22;12.50;;;10.65;;
24008;SDS011;12217;50.792;4.372;2023-06-10T04:48:49;11.75;;;10.50;;
24008;SDS011;12217;50.792;4.372;2023-06-10T04:51:14;11.88;;;10.68;;
24008;SDS011;12217;50.792;4.372;2023-06-10T04:53:41;12.25;;;11.05;;
24008;SDS011;12217;50.792;4.372;2023-06-10T04:56:07;12.13;;;10.90;;
24008;SDS011;12217;50.792;4.372;2023-06-10T04:58:33;13.48;;;11.02;;
24008;SDS011;12217;50.792;4.372;2023-06-10T05:00:58;11.82;;;10.60;;
24008;SDS011;12217;50.792;4.372;2023-06-10T05:03:24;11.27;;;10.27;;
24008;SDS011;12217;50.792;4.372;2023-06-10T05:05:50;11.45;;;10.35;;
24008;SDS011;12217;50.792;4.372;2023-06-10T05:08:16;11.18;;;10.25;;
24008;SDS011;12217;50.792;4.372;2023-06-10T05:10:42;11.55;;;10.45;;
24008;SDS011;12217;50.792;4.372;2023-06-10T05:13:07;12.25;;;11.05;;
24008;SDS011;12217;50.792;4.372;2023-06-10T05:15:33;14.10;;;10.63;;
24008;SDS011;12217;50.792;4.372;2023-06-10T05:17:59;12.02;;;10.95;;
24008;SDS011;12217;50.792;4.372;2023-06-10T05:20:25;12.05;;;10.85;;
24008;SDS011;12217;50.792;4.372;2023-06-10T05:22:50;12.85;;;10.23;;
24008;SDS011;12217;50.792;4.372;2023-06-10T05:25:17;12.05;;;10.85;;
24008;SDS011;12217;50.792;4.372;2023-06-10T05:27:42;12.82;;;11.10;;
24008;SDS011;12217;50.792;4.372;2023-06-10T05:30:09;12.07;;;10.98;;
24008;SDS011;12217;50.792;4.372;2023-06-10T05:32:35;13.85;;;10.82;;
24008;SDS011;12217;50.792;4.372;2023-06-10T05:35:01;11.55;;;10.38;;
24008;SDS011;12217;50.792;4.372;2023-06-10T05:37:28;11.57;;;10.48;;
24008;SDS011;12217;50.792;4.372;2023-06-10T05:39:54;11.88;;;10.68;;
24008;SDS011;12217;50.792;4.372;2023-06-10T05:42:20;12.98;;;10.93;;
24008;SDS011;12217;50.792;4.372;2023-06-10T05:44:45;11.50;;;10.50;;
24008;SDS011;12217;50.792;4.372;2023-06-10T05:47:11;12.00;;;10.23;;
24008;SDS011;12217;50.792;4.372;2023-06-10T05:49:36;11.65;;;10.45;;
24008;SDS011;12217;50.792;4.372;2023-06-10T05:52:02;12.98;;;10.75;;
24008;SDS011;12217;50.792;4.372;2023-06-10T05:54:28;13.02;;;11.02;;
24008;SDS011;12217;50.792;4.372;2023-06-10T05:56:53;11.52;;;10.38;;
24008;SDS011;12217;50.792;4.372;2023-06-10T05:59:19;11.60;;;10.55;;
24008;SDS011;12217;50.792;4.372;2023-06-10T06:01:45;11.70;;;10.30;;
24008;SDS011;12217;50.792;4.372;2023-06-10T06:04:10;11.88;;;10.68;;
24008;SDS011;12217;50.792;4.372;2023-06-10T06:06:38;12.27;;;10.80;;
24008;SDS011;12217;50.792;4.372;2023-06-10T06:09:03;12.55;;;11.25;;
24008;SDS011;12217;50.792;4.372;2023-06-10T06:11:29;12.13;;;11.02;;
24008;SDS011;12217;50.792;4.372;2023-06-10T06:13:55;11.80;;;10.38;;
24008;SDS011;12217;50.792;4.372;2023-06-10T06:16:21;11.95;;;10.75;;
24008;SDS011;12217;50.792;4.372;2023-06-10T06:18:46;14.45;;;10.63;;
24008;SDS011;12217;50.792;4.372;2023-06-10T06:21:12;11.45;;;10.27;;
24008;SDS011;12217;50.792;4.372;2023-06-10T06:23:37;12.15;;;10.85;;
24008;SDS011;12217;50.792;4.372;2023-06-10T06:26:03;11.73;;;10.57;;
24008;SDS011;12217;50.792;4.372;2023-06-10T06:28:29;10.30;;;9.32;;
24008;SDS011;12217;50.792;4.372;2023-06-10T06:30:56;11.32;;;10.35;;
24008;SDS011;12217;50.792;4.372;2023-06-10T06:33:21;11.35;;;10.25;;
24008;SDS011;12217;50.792;4.372;2023-06-10T06:35:47;11.93;;;10.57;;
24008;SDS011;12217;50.792;4.372;2023-06-10T06:38:13;12.73;;;10.52;;
24008;SDS011;12217;50.792;4.372;2023-06-10T06:40:38;10.65;;;9.68;;
24008;SDS011;12217;50.792;4.372;2023-06-10T06:43:04;11.32;;;10.23;;
24008;SDS011;12217;50.792;4.372;2023-06-10T06:45:29;10.75;;;9.60;;
24008;SDS011;12217;50.792;4.372;2023-06-10T06:47:55;11.90;;;9.98;;
24008;SDS011;12217;50.792;4.372;2023-06-10T06:50:21;10.82;;;9.75;;
24008;SDS011;12217;50.792;4.372;2023-06-10T06:52:46;11.25;;;10.15;;
24008;SDS011;12217;50.792;4.372;2023-06-10T06:55:12;11.65;;;10.10;;
24008;SDS011;12217;50.792;4.372;2023-06-10T06:57:38;14.27;;;10.10;;
24008;SDS011;12217;50.792;4.372;2023-06-10T07:00:03;12.13;;;10.50;;
24008;SDS011;12217;50.792;4.372;2023-06-10T07:02:30;11.65;;;10.45;;
24008;SDS011;12217;50.792;4.372;2023-06-10T07:04:57;11.65;;;10.30;;
24008;SDS011;12217;50.792;4.372;2023-06-10T07:07:23;11.38;;;10.27;;
24008;SDS011;12217;50.792;4.372;2023-06-10T07:09:49;11.38;;;10.35;;
24008;SDS011;12217;50.792;4.372;2023-06-10T07:12:15;11.38;;;10.27;;
24008;SDS011;12217;50.792;4.372;2023-06-10T07:14:41;10.25;;;9.35;;
24008;SDS011;12217;50.792;4.372;2023-06-10T07:17:07;11.10;;;9.93;;
24008;SDS011;12217;50.792;4.372;2023-06-10T07:19:33;11.38;;;10.30;;
24008;SDS011;12217;50.792;4.372;2023-06-10T07:21:58;10.18;;;9.27;;
24008;SDS011;12217;50.792;4.372;2023-06-10T07:24:24;12.23;;;9.38;;
24008;SDS011;12217;50.792;4.372;2023-06-10T07:26:50;11.30;;;9.57;;
24008;SDS011;12217;50.792;4.372;2023-06-10T07:29:16;11.20;;;10.10;;
24008;SDS011;12217;50.792;4.372;2023-06-10T07:31:41;11.18;;;9.98;;
24008;SDS011;12217;50.792;4.372;2023-06-10T07:34:07;11.80;;;10.27;;
24008;SDS011;12217;50.792;4.372;2023-06-10T07:36:33;11.38;;;10.23;;
24008;SDS011;12217;50.792;4.372;2023-06-10T07:38:58;10.68;;;9.57;;
24008;SDS011;12217;50.792;4.372;2023-06-10T07:41:24;10.15;;;9.20;;
24008;SDS011;12217;50.792;4.372;2023-06-10T07:43:50;11.02;;;10.10;;
24008;SDS011;12217;50.792;4.372;2023-06-10T07:46:19;10.13;;;9.23;;
24008;SDS011;12217;50.792;4.372;2023-06-10T07:48:46;10.82;;;9.73;;
24008;SDS011;12217;50.792;4.372;2023-06-10T07:51:12;13.82;;;9.73;;
24008;SDS011;12217;50.792;4.372;2023-06-10T07:53:38;10.02;;;9.00;;
24008;SDS011;12217;50.792;4.372;2023-06-10T07:56:03;9.98;;;9.07;;
24008;SDS011;12217;50.792;4.372;2023-06-10T07:58:29;10.50;;;9.60;;
24008;SDS011;12217;50.792;4.372;2023-06-10T08:00:54;9.80;;;8.90;;
24008;SDS011;12217;50.792;4.372;2023-06-10T08:03:20;10.70;;;9.70;;
24008;SDS011;12217;50.792;4.372;2023-06-10T08:05:46;10.23;;;9.15;;
24008;SDS011;12217;50.792;4.372;2023-06-10T08:08:12;9.93;;;8.93;;
24008;SDS011;12217;50.792;4.372;2023-06-10T08:10:38;10.10;;;9.20;;
24008;SDS011;12217;50.792;4.372;2023-06-10T08:13:04;10.90;;;9.82;;
24008;SDS011;12217;50.792;4.372;2023-06-10T08:15:29;9.70;;;8.70;;
24008;SDS011;12217;50.792;4.372;2023-06-10T08:17:55;10.95;;;8.88;;
24008;SDS011;12217;50.792;4.372;2023-06-10T08:20:21;10.25;;;9.25;;
24008;SDS011;12217;50.792;4.372;2023-06-10T08:22:47;9.95;;;9.05;;
24008;SDS011;12217;50.792;4.372;2023-06-10T08:25:12;10.57;;;8.75;;
24008;SDS011;12217;50.792;4.372;2023-06-10T08:27:38;10.40;;;9.40;;
24008;SDS011;12217;50.792;4.372;2023-06-10T08:30:04;10.57;;;9.48;;
24008;SDS011;12217;50.792;4.372;2023-06-10T08:32:30;10.45;;;9.23;;
24008;SDS011;12217;50.792;4.372;2023-06-10T08:34:55;9.90;;;8.85;;
24008;SDS011;12217;50.792;4.372;2023-06-10T08:37:21;11.35;;;9.77;;
24008;SDS011;12217;50.792;4.372;2023-06-10T08:39:47;9.95;;;9.00;;
24008;SDS011;12217;50.792;4.372;2023-06-10T08:42:22;10.45;;;9.43;;
24008;SDS011;12217;50.792;4.372;2023-06-10T08:44:55;10.20;;;9.15;;
24008;SDS011;12217;50.792;4.372;2023-06-10T08:47:24;11.52;;;9.18;;
24008;SDS011;12217;50.792;4.372;2023-06-10T08:49:53;9.75;;;8.85;;
24008;SDS011;12217;50.792;4.372;2023-06-10T08:52:21;9.43;;;8.55;;
24008;SDS011;12217;50.792;4.372;2023-06-10T08:54:57;9.73;;;8.57;;
24008;SDS011;12217;50.792;4.372;2023-06-10T09:00:00;9.75;;;8.93;;
24008;SDS011;12217;50.792;4.372;2023-06-10T09:02:26;9.80;;;8.77;;
24008;SDS011;12217;50.792;4.372;2023-06-10T09:04:52;9.85;;;8.82;;
24008;SDS011;12217;50.792;4.372;2023-06-10T09:07:19;10.63;;;8.52;;
24008;SDS011;12217;50.792;4.372;2023-06-10T09:09:45;8.93;;;8.00;;
24008;SDS011;12217;50.792;4.372;2023-06-10T09:12:14;9.90;;;8.90;;
24008;SDS011;12217;50.792;4.372;2023-06-10T09:14:40;9.68;;;8.68;;
24008;SDS011;12217;50.792;4.372;2023-06-10T09:17:07;11.63;;;8.32;;
24008;SDS011;12217;50.792;4.372;2023-06-10T09:19:32;8.68;;;7.88;;
24008;SDS011;12217;50.792;4.372;2023-06-10T09:21:58;13.32;;;8.80;;
24008;SDS011;12217;50.792;4.372;2023-06-10T09:24:24;12.20;;;8.30;;
24008;SDS011;12217;50.792;4.372;2023-06-10T09:26:50;9.18;;;8.30;;
24008;SDS011;12217;50.792;4.372;2023-06-10T09:29:26;10.07;;;8.68;;
24008;SDS011;12217;50.792;4.372;2023-06-10T09:31:52;13.55;;;8.63;;
24008;SDS011;12217;50.792;4.372;2023-06-10T09:34:18;8.70;;;7.88;;
24008;SDS011;12217;50.792;4.372;2023-06-10T09:36:43;9.45;;;8.55;;
24008;SDS011;12217;50.792;4.372;2023-06-10T09:39:16;10.38;;;7.97;;
24008;SDS011;12217;50.792;4.372;2023-06-10T09:41:44;9.93;;;8.20;;
24008;SDS011;12217;50.792;4.372;2023-06-10T09:44:18;10.95;;;8.07;;
24008;SDS011;12217;50.792;4.372;2023-06-10T09:46:45;10.30;;;8.40;;
24008;SDS011;12217;50.792;4.372;2023-06-10T09:49:12;11.38;;;8.32;;
24008;SDS011;12217;50.792;4.372;2023-06-10T09:51:38;11.23;;;8.98;;
24008;SDS011;12217;50.792;4.372;2023-06-10T09:54:19;9.50;;;8.45;;
24008;SDS011;12217;50.792;4.372;2023-06-10T09:56:49;9.00;;;8.18;;
24008;SDS011;12217;50.792;4.372;2023-06-10T09:59:16;7.68;;;6.97;;
24008;SDS011;12217;50.792;4.372;2023-06-10T10:01:55;7.88;;;7.18;;
24008;SDS011;12217;50.792;4.372;2023-06-10T10:04:24;8.90;;;8.10;;
24008;SDS011;12217;50.792;4.372;2023-06-10T10:06:50;8.07;;;7.43;;
24008;SDS011;12217;50.792;4.372;2023-06-10T10:09:16;8.00;;;7.20;;
24008;SDS011;12217;50.792;4.372;2023-06-10T10:11:41;8.23;;;7.47;;
24008;SDS011;12217;50.792;4.372;2023-06-10T10:14:09;8.93;;;7.20;;
24008;SDS011;12217;50.792;4.372;2023-06-10T10:16:36;10.98;;;7.30;;
24008;SDS011;12217;50.792;4.372;2023-06-10T10:19:20;8.38;;;7.20;;
24008;SDS011;12217;50.792;4.372;2023-06-10T10:21:54;8.20;;;7.43;;
24008;SDS011;12217;50.792;4.372;2023-06-10T10:24:31;7.50;;;6.90;;
24008;SDS011;12217;50.792;4.372;2023-06-10T10:27:01;7.80;;;7.05;;
24008;SDS011;12217;50.792;4.372;2023-06-10T10:29:39;7.72;;;7.13;;
24008;SDS011;12217;50.792;4.372;2023-06-10T10:32:06;9.65;;;7.13;;
24008;SDS011;12217;50.792;4.372;2023-06-10T10:34:35;7.60;;;6.80;;
24008;SDS011;12217;50.792;4.372;2023-06-10T10:37:09;7.35;;;6.70;;
24008;SDS011;12217;50.792;4.372;2023-06-10T10:39:35;7.55;;;6.80;;
24008;SDS011;12217;50.792;4.372;2023-06-10T10:42:01;7.65;;;6.80;;
24008;SDS011;12217;50.792;4.372;2023-06-10T10:44:29;7.68;;;6.97;;
24008;SDS011;12217;50.792;4.372;2023-06-10T10:46:56;8.43;;;7.25;;
24008;SDS011;12217;50.792;4.372;2023-06-10T10:49:27;7.65;;;6.53;;
24008;SDS011;12217;50.792;4.372;2023-06-10T10:52:00;9.68;;;6.85;;
24008;SDS011;12217;50.792;4.372;2023-06-10T10:54:33;8.40;;;6.75;;
24008;SDS011;12217;50.792;4.372;2023-06-10T10:57:09;8.65;;;6.80;;
24008;SDS011;12217;50.792;4.372;2023-06-10T10:59:45;7.68;;;6.95;;
24008;SDS011;12217;50.792;4.372;2023-06-10T11:02:31;8.57;;;6.47;;
24008;SDS011;12217;50.792;4.372;2023-06-10T11:04:57;7.10;;;6.50;;
24008;SDS011;12217;50.792;4.372;2023-06-10T11:07:26;9.75;;;6.30;;
24008;SDS011;12217;50.792;4.372;2023-06-10T11:09:59;8.07;;;7.38;;
24008;SDS011;12217;50.792;4.372;2023-06-10T11:12:26;6.80;;;6.20;;
24008;SDS011;12217;50.792;4.372;2023-06-10T11:15:13;7.30;;;6.70;;
24008;SDS011;12217;50.792;4.372;2023-06-10T11:28:40;7.53;;;6.82;;
24008;SDS011;12217;50.792;4.372;2023-06-10T11:31:06;8.65;;;6.38;;
24008;SDS011;12217;50.792;4.372;2023-06-10T11:33:32;7.38;;;6.32;;
24008;SDS011;12217;50.792;4.372;2023-06-10T11:35:58;7.25;;;6.45;;
24008;SDS011;12217;50.792;4.372;2023-06-10T11:38:24;7.28;;;6.13;;
24008;SDS011;12217;50.792;4.372;2023-06-10T11:40:50;7.93;;;6.35;;
24008;SDS011;12217;50.792;4.372;2023-06-10T11:43:19;7.18;;;6.55;;
24008;SDS011;12217;50.792;4.372;2023-06-10T11:45:46;8.95;;;6.90;;
24008;SDS011;12217;50.792;4.372;2023-06-10T11:48:12;7.03;;;6.43;;
24008;SDS011;12217;50.792;4.372;2023-06-10T11:50:38;8.80;;;6.38;;
24008;SDS011;12217;50.792;4.372;2023-06-10T11:53:07;6.63;;;5.90;;
24008;SDS011;12217;50.792;4.372;2023-06-10T11:58:19;6.47;;;5.88;;
24008;SDS011;12217;50.792;4.372;2023-06-10T12:00:50;7.20;;;6.18;;
24008;SDS011;12217;50.792;4.372;2023-06-10T12:03:18;7.57;;;6.78;;
24008;SDS011;12217;50.792;4.372;2023-06-10T12:08:23;7.78;;;7.00;;
24008;SDS011;12217;50.792;4.372;2023-06-10T12:10:49;10.40;;;6.78;;
24008;SDS011;12217;50.792;4.372;2023-06-10T12:13:15;6.68;;;6.10;;
24008;SDS011;12217;50.792;4.372;2023-06-10T12:15:42;7.00;;;6.40;;
24008;SDS011;12217;50.792;4.372;2023-06-10T12:18:15;7.85;;;6.50;;
24008;SDS011;12217;50.792;4.372;2023-06-10T12:20:44;7.30;;;6.55;;
24008;SDS011;12217;50.792;4.372;2023-06-10T12:23:10;7.53;;;6.82;;
24008;SDS011;12217;50.792;4.372;2023-06-10T12:25:37;7.90;;;7.18;;
24008;SDS011;12217;50.792;4.372;2023-06-10T12:28:03;7.60;;;6.97;;
24008;SDS011;12217;50.792;4.372;2023-06-10T12:30:30;7.68;;;6.97;;
24008;SDS011;12217;50.792;4.372;2023-06-10T12:32:56;9.15;;;6.88;;
24008;SDS011;12217;50.792;4.372;2023-06-10T12:35:23;8.30;;;7.50;;
24008;SDS011;12217;50.792;4.372;2023-06-10T12:37:56;10.00;;;7.28;;
24008;SDS011;12217;50.792;4.372;2023-06-10T12:42:54;9.05;;;7.05;;
24008;SDS011;12217;50.792;4.372;2023-06-10T12:45:33;7.80;;;7.10;;
24008;SDS011;12217;50.792;4.372;2023-06-10T12:50:49;7.68;;;6.88;;
24008;SDS011;12217;50.792;4.372;2023-06-10T12:53:17;7.78;;;7.20;;
24008;SDS011;12217;50.792;4.372;2023-06-10T12:55:44;8.63;;;7.20;;
24008;SDS011;12217;50.792;4.372;2023-06-10T12:58:10;8.07;;;7.13;;
24008;SDS011;12217;50.792;4.372;2023-06-10T13:00:37;9.60;;;7.47;;
24008;SDS011;12217;50.792;4.372;2023-06-10T13:03:03;8.52;;;7.70;;
24008;SDS011;12217;50.792;4.372;2023-06-10T13:05:30;8.23;;;7.43;;
24008;SDS011;12217;50.792;4.372;2023-06-10T13:07:56;8.68;;;6.93;;
24008;SDS011;12217;50.792;4.372;2023-06-10T13:10:23;7.80;;;6.97;;
24008;SDS011;12217;50.792;4.372;2023-06-10T13:12:50;8.50;;;7.65;;
24008;SDS011;12217;50.792;4.372;2023-06-10T13:15:15;8.25;;;7.47;;
24008;SDS011;12217;50.792;4.372;2023-06-10T13:17:44;9.48;;;6.90;;
24008;SDS011;12217;50.792;4.372;2023-06-10T13:20:14;7.88;;;7.07;;
24008;SDS011;12217;50.792;4.372;2023-06-10T13:22:40;7.88;;;6.90;;
24008;SDS011;12217;50.792;4.372;2023-06-10T13:25:05;7.82;;;7.22;;
24008;SDS011;12217;50.792;4.372;2023-06-10T13:27:32;7.75;;;6.95;;
24008;SDS011;12217;50.792;4.372;2023-06-10T13:29:59;7.65;;;6.95;;
24008;SDS011;12217;50.792;4.372;2023-06-10T13:32:25;7.68;;;6.97;;
24008;SDS011;12217;50.792;4.372;2023-06-10T13:34:51;7.80;;;7.10;;
24008;SDS011;12217;50.792;4.372;2023-06-10T13:37:18;9.38;;;6.93;;
24008;SDS011;12217;50.792;4.372;2023-06-10T13:39:44;8.98;;;6.95;;
24008;SDS011;12217;50.792;4.372;2023-06-10T13:42:13;9.45;;;7.10;;
24008;SDS011;12217;50.792;4.372;2023-06-10T13:44:39;7.88;;;6.80;;
24008;SDS011;12217;50.792;4.372;2023-06-10T13:47:05;7.45;;;6.75;;
24008;SDS011;12217;50.792;4.372;2023-06-10T13:49:31;8.30;;;7.15;;
24008;SDS011;12217;50.792;4.372;2023-06-10T13:51:57;9.48;;;6.85;;
24008;SDS011;12217;50.792;4.372;2023-06-10T13:54:22;7.22;;;6.63;;
24008;SDS011;12217;50.792;4.372;2023-06-10T13:56:48;8.80;;;6.93;;
24008;SDS011;12217;50.792;4.372;2023-06-10T13:59:14;7.47;;;6.75;;
24008;SDS011;12217;50.792;4.372;2023-06-10T14:01:39;7.85;;;7.00;;
24008;SDS011;12217;50.792;4.372;2023-06-10T14:04:06;8.57;;;7.30;;
24008;SDS011;12217;50.792;4.372;2023-06-10T14:06:32;7.32;;;6.65;;
24008;SDS011;12217;50.792;4.372;2023-06-10T14:08:58;11.55;;;6.78;;
24008;SDS011;12217;50.792;4.372;2023-06-10T14:11:24;7.75;;;7.00;;
24008;SDS011;12217;50.792;4.372;2023-06-10T14:13:50;7.43;;;6.80;;
24008;SDS011;12217;50.792;4.372;2023-06-10T14:16:16;9.32;;;7.15;;
24008;SDS011;12217;50.792;4.372;2023-06-10T14:18:41;8.68;;;7.80;;
24008;SDS011;12217;50.792;4.372;2023-06-10T14:21:07;7.35;;;6.85;;
24008;SDS011;12217;50.792;4.372;2023-06-10T14:23:32;9.82;;;7.50;;
24008;SDS011;12217;50.792;4.372;2023-06-10T14:25:58;12.45;;;7.40;;
24008;SDS011;12217;50.792;4.372;2023-06-10T14:28:24;9.18;;;7.13;;
24008;SDS011;12217;50.792;4.372;2023-06-10T14:30:52;9.45;;;7.13;;
24008;SDS011;12217;50.792;4.372;2023-06-10T14:33:17;7.50;;;6.90;;
24008;SDS011;12217;50.792;4.372;2023-06-10T14:35:43;8.10;;;7.15;;
24008;SDS011;12217;50.792;4.372;2023-06-10T14:38:09;7.65;;;7.00;;
24008;SDS011;12217;50.792;4.372;2023-06-10T14:40:34;8.45;;;7.50;;
24008;SDS011;12217;50.792;4.372;2023-06-10T14:43:00;8.05;;;7.25;;
24008;SDS011;12217;50.792;4.372;2023-06-10T14:45:29;8.27;;;6.90;;
24008;SDS011;12217;50.792;4.372;2023-06-10T14:47:54;7.53;;;6.82;;
24008;SDS011;12217;50.792;4.372;2023-06-10T14:50:20;8.15;;;7.35;;
24008;SDS011;12217;50.792;4.372;2023-06-10T14:52:46;9.45;;;7.93;;
24008;SDS011;12217;50.792;4.372;2023-06-10T14:55:11;8.40;;;7.60;;
24008;SDS011;12217;50.792;4.372;2023-06-10T14:57:37;10.55;;;7.30;;
24008;SDS011;12217;50.792;4.372;2023-06-10T15:00:03;8.45;;;7.72;;
24008;SDS011;12217;50.792;4.372;2023-06-10T15:02:29;8.52;;;7.35;;
24008;SDS011;12217;50.792;4.372;2023-06-10T15:04:54;8.50;;;7.03;;